Weather reports worldwide

Advertisment
Capdepera,Faro, Spain (8311): temperature & dewpoint: 08.11.2018 13:00:00 - 14.11.2018 13:00:00 (CET)Capdepera,Faro, Spain (8311): wind speed & gusts: 08.11.2018 13:00:00 - 14.11.2018 13:00:00 (CET)Capdepera,Faro, Spain (8311): wind direction: 08.11.2018 13:00:00 - 14.11.2018 13:00:00 (CET)Capdepera,Faro, Spain (8311): precipitation: 08.11.2018 13:00:00 - 14.11.2018 13:00:00 (CET)
Date & Time tt [°C] td [°C] ff [km/h] ff [kn] fx [km/h] fx [kn] dd rr [mm]
14.11.2018 13:00:00 - - - - - - - -
14.11.2018 12:00:00 21,8 18,0 10 6 14 8 SE 0,0
14.11.2018 11:00:00 21,6 17,8 12 7 19 10 SE 0,0
14.11.2018 10:00:00 19,6 17,2 12 7 18 10 ESE 0,0
14.11.2018 09:00:00 18,9 17,4 8 4 15 8 E 0,0
14.11.2018 08:00:00 18,1 17,5 5 3 14 7 E 0,0
14.11.2018 07:00:00 17,9 17,4 6 3 12 7 E -
14.11.2018 06:00:00 18,1 17,6 0 0 11 6 N 0,0
14.11.2018 05:00:00 18,1 17,5 4 2 11 6 SE 0,0
14.11.2018 04:00:00 18,2 17,5 0 0 0 0 N 0,0
14.11.2018 03:00:00 18,1 17,5 0 0 0 0 N 0,0
14.11.2018 02:00:00 18,2 17,5 0 0 0 0 N 0,0
14.11.2018 01:00:00 18,2 17,5 0 0 11 6 N -
14.11.2018 00:00:00 18,5 17,9 8 4 12 7 E 0,0
13.11.2018 23:00:00 18,5 17,9 0 0 0 0 N 0,0
13.11.2018 22:00:00 18,6 17,9 2 1 9 5 ESE 0,0
13.11.2018 21:00:00 18,6 17,8 1 0 9 5 NE 0,0
13.11.2018 20:00:00 18,6 17,3 6 3 8 4 N 0,0
13.11.2018 19:00:00 19,0 17,1 0 0 9 5 N -
13.11.2018 18:00:00 18,9 16,9 7 4 10 5 E 0,0
13.11.2018 17:00:00 19,2 17,4 0 0 0 0 N 0,0
13.11.2018 16:00:00 19,9 17,9 0 0 0 0 N 0,0
13.11.2018 15:00:00 19,9 18,0 0 0 4 2 N 0,0
13.11.2018 14:00:00 20,2 18,5 0 0 9 5 NE 0,0
13.11.2018 13:00:00 20,5 19,3 6 3 15 8 SE -
13.11.2018 12:00:00 19,9 19,1 8 4 12 6 ENE 0,0
13.11.2018 11:00:00 20,1 19,4 0 0 4 2 N 0,0
13.11.2018 10:00:00 19,5 19,0 0 0 0 0 N 0,0
13.11.2018 09:00:00 18,7 18,2 0 0 8 5 E 0,0
13.11.2018 08:00:00 18,3 17,5 0 0 0 0 N 0,0
13.11.2018 07:00:00 18,1 17,3 0 0 0 0 N -
13.11.2018 06:00:00 17,8 15,3 0 0 0 0 N 0,0
13.11.2018 05:00:00 17,7 16,6 0 0 11 6 S 0,0
13.11.2018 04:00:00 17,7 17,4 9 5 12 6 S 0,0
13.11.2018 03:00:00 18,1 17,8 11 6 14 7 S 0,0
13.11.2018 02:00:00 18,1 17,8 10 6 16 9 S 0,0
13.11.2018 01:00:00 18,2 17,7 12 6 16 9 S -
13.11.2018 00:00:00 18,2 17,7 10 5 13 7 S 0,0
12.11.2018 23:00:00 18,4 17,9 10 6 21 11 S 0,0
12.11.2018 22:00:00 18,6 18,1 17 9 22 12 S 0,0
12.11.2018 21:00:00 18,7 18,2 18 10 23 12 SSE 0,0
12.11.2018 20:00:00 18,8 18,3 22 12 27 15 SSE 0,0
12.11.2018 19:00:00 18,9 18,2 24 13 29 16 SSE -
12.11.2018 18:00:00 18,9 18,1 26 14 34 18 SSE 0,0
12.11.2018 17:00:00 19,3 18,3 30 16 39 21 SSE 0,0
12.11.2018 16:00:00 20,2 18,3 31 17 39 21 SSE 0,0
12.11.2018 15:00:00 21,3 18,5 35 19 40 22 S 0,0
12.11.2018 14:00:00 21,1 18,3 35 19 40 22 S 0,0
12.11.2018 13:00:00 20,5 18,2 34 18 39 21 SSE -
12.11.2018 12:00:00 20,5 18,2 35 19 38 20 SSE 0,0
12.11.2018 11:00:00 21,0 18,2 20 11 26 14 S 0,0
12.11.2018 10:00:00 21,0 18,2 20 11 33 18 S 0,0
12.11.2018 09:00:00 19,5 18,3 32 18 40 21 SSE 0,0
12.11.2018 08:00:00 18,6 17,9 31 17 42 23 SSE 0,0
12.11.2018 07:00:00 18,7 17,7 32 17 37 20 SSE -
12.11.2018 06:00:00 18,5 17,4 29 16 37 20 SSE 0,0
12.11.2018 05:00:00 18,5 17,1 29 16 37 20 SSE 0,0
12.11.2018 04:00:00 18,5 17,0 32 17 38 21 SSE 0,0
12.11.2018 03:00:00 18,4 16,4 35 19 39 21 SSE 0,0
12.11.2018 02:00:00 18,4 16,9 31 17 37 20 SSE 0,0
12.11.2018 01:00:00 18,1 16,6 32 17 39 21 SSE -
12.11.2018 00:00:00 17,8 16,3 32 17 40 22 S 0,0
11.11.2018 23:00:00 17,9 15,9 33 18 48 26 S 0,0
11.11.2018 22:00:00 18,1 16,0 33 18 45 24 S 0,0
11.11.2018 21:00:00 17,8 15,8 29 16 46 25 S 0,0
11.11.2018 20:00:00 18,0 16,6 28 15 47 26 S 0,0
11.11.2018 19:00:00 18,0 16,8 22 12 41 22 S -
11.11.2018 18:00:00 18,0 17,4 25 13 41 22 S 0,0
11.11.2018 17:00:00 18,6 16,0 28 15 51 27 S 0,0
11.11.2018 16:00:00 19,0 17,5 37 20 51 28 S 0,0
11.11.2018 15:00:00 19,3 17,8 26 14 49 26 S 0,0
11.11.2018 14:00:00 19,8 17,8 26 14 51 27 S 0,0
11.11.2018 13:00:00 20,1 17,1 23 12 39 21 S -
11.11.2018 12:00:00 21,5 15,6 19 10 40 21 S 0,0
11.11.2018 11:00:00 21,7 16,4 14 8 21 12 SSW 0,0
11.11.2018 10:00:00 21,3 15,2 9 5 18 10 SSW 0,0
11.11.2018 09:00:00 19,5 15,3 9 5 20 11 SW 0,0
11.11.2018 08:00:00 16,3 15,0 15 8 19 10 SSW 0,0
11.11.2018 07:00:00 15,6 14,8 10 5 13 7 S -
11.11.2018 06:00:00 15,7 14,9 9 5 14 7 SSW 0,0
11.11.2018 05:00:00 15,7 14,9 11 6 15 8 SSW 0,0
11.11.2018 04:00:00 16,3 15,2 10 6 16 9 S 0,0
11.11.2018 03:00:00 16,4 14,9 13 7 19 10 SW 0,0
11.11.2018 02:00:00 16,5 15,2 10 5 22 12 S 0,0
11.11.2018 01:00:00 16,3 15,5 20 11 31 17 SSW -
11.11.2018 00:00:00 16,7 15,5 21 11 29 16 SSW 0,0
10.11.2018 23:00:00 16,6 15,3 21 11 35 19 SSW 0,0
10.11.2018 22:00:00 16,7 15,4 16 8 30 16 SSW 0,0
10.11.2018 21:00:00 16,5 14,9 18 10 27 14 SSW 0,0
10.11.2018 20:00:00 16,4 14,6 17 9 33 18 SSW 0,0
10.11.2018 19:00:00 16,6 14,0 19 11 29 16 SSW -
10.11.2018 18:00:00 17,2 12,1 18 10 35 19 SSW 0,0
10.11.2018 17:00:00 18,1 11,9 23 12 37 20 SSW 0,0
10.11.2018 16:00:00 19,3 12,3 18 10 37 20 SSW 0,0
10.11.2018 15:00:00 20,1 13,1 17 9 40 21 SW 0,0
10.11.2018 14:00:00 20,2 12,2 26 14 41 22 SW 0,0
10.11.2018 13:00:00 19,7 12,2 23 13 37 20 SSW -
10.11.2018 12:00:00 19,7 12,2 24 13 37 20 SSW 0,0
10.11.2018 11:00:00 18,1 12,1 16 9 26 14 SW 0,0
10.11.2018 10:00:00 17,6 10,5 9 5 22 12 S 0,0
10.11.2018 09:00:00 15,7 11,2 16 8 20 11 SSW 0,0
10.11.2018 08:00:00 15,2 10,2 17 9 21 11 SW 0,0
10.11.2018 07:00:00 14,1 9,7 10 6 16 8 SSW -
10.11.2018 06:00:00 14,7 9,6 11 6 17 9 NW 0,0
10.11.2018 05:00:00 14,6 12,3 9 5 22 12 WNW 0,0
10.11.2018 04:00:00 15,1 13,3 11 6 22 12 NW 0,0
10.11.2018 03:00:00 15,8 13,7 11 6 24 13 NW 0,0
10.11.2018 02:00:00 15,8 13,9 13 7 36 20 NW 0,0
10.11.2018 01:00:00 15,5 14,2 14 8 41 22 NNW -
10.11.2018 00:00:00 16,0 14,5 21 11 44 24 NNW 0,9
09.11.2018 23:00:00 15,5 14,0 11 6 23 12 NW 0,0
09.11.2018 22:00:00 14,2 12,7 16 9 23 12 W 0,0
09.11.2018 21:00:00 13,7 11,9 18 10 27 15 SW 0,0
09.11.2018 20:00:00 13,8 12,3 22 12 29 16 SW 0,0
09.11.2018 19:00:00 13,4 12,3 23 12 31 17 SW -
09.11.2018 18:00:00 13,4 11,8 21 12 41 22 WSW 0,8
09.11.2018 17:00:00 14,1 11,6 15 8 34 18 W 0,3
09.11.2018 16:00:00 14,9 10,3 14 8 29 16 W 0,0
09.11.2018 15:00:00 16,3 10,6 8 4 25 13 WNW 0,0
09.11.2018 14:00:00 16,7 13,7 13 7 34 18 WSW 0,1
09.11.2018 13:00:00 17,4 12,5 17 9 29 16 WSW -
09.11.2018 12:00:00 18,6 12,1 19 11 36 19 SSW 0,0
09.11.2018 11:00:00 19,2 13,4 27 15 40 21 SW 0,0
09.11.2018 10:00:00 18,4 14,9 16 9 27 14 SSW 0,0
09.11.2018 09:00:00 15,1 13,7 17 9 23 13 SSW 0,0
09.11.2018 08:00:00 15,6 14,6 3 2 26 14 SSW 0,4
09.11.2018 07:00:00 16,2 15,3 11 6 21 11 WSW -
09.11.2018 06:00:00 16,3 15,5 13 7 19 10 SSW 0,0
09.11.2018 05:00:00 17,0 16,2 14 8 26 14 SSW 0,0
09.11.2018 04:00:00 18,0 16,6 14 7 30 16 SSW 0,0
09.11.2018 03:00:00 18,2 16,4 26 14 35 19 S 0,0
09.11.2018 02:00:00 18,0 15,8 28 15 37 20 SSE 0,0
09.11.2018 01:00:00 17,8 15,8 30 16 37 20 SSE -
09.11.2018 00:00:00 17,7 15,5 22 12 37 20 SSE 0,0
08.11.2018 23:00:00 17,8 15,6 27 15 35 19 S 0,0
08.11.2018 22:00:00 17,7 15,5 26 14 36 20 SSE 0,0
08.11.2018 21:00:00 17,7 15,3 34 18 40 22 S 0,0
08.11.2018 20:00:00 17,7 15,5 29 16 34 18 S 0,0
08.11.2018 19:00:00 17,8 15,3 25 13 31 17 SSE -
08.11.2018 18:00:00 17,8 15,4 22 12 29 16 S 0,0
08.11.2018 17:00:00 18,4 15,3 18 10 29 16 S 0,0
08.11.2018 16:00:00 19,1 15,2 16 9 34 19 S 0,0
08.11.2018 15:00:00 20,2 15,2 20 11 36 20 S 0,0
08.11.2018 14:00:00 19,9 15,2 24 13 38 20 S 0,0
08.11.2018 13:00:00 20,1 15,3 23 12 35 19 S -

tt = temperature
td = dewpoint
ff = wind speed
fx = gusts
dd = wind direction
rr = precipitation

Next stations